createdAt,value
2023-10-09T00:01:47.468Z,92972.41
2023-10-09T00:04:17.751Z,92971.06
2023-10-09T00:06:45.150Z,92978.16
2023-10-09T00:09:23.840Z,92977.56
2023-10-09T00:11:57.580Z,92982.38
2023-10-09T00:14:26.110Z,92981.09
2023-10-09T00:17:11.842Z,92969.63
2023-10-09T00:19:38.492Z,92974.63
2023-10-09T00:22:25.346Z,92964.63
2023-10-09T00:25:10.856Z,92980.91
2023-10-09T00:27:42.390Z,92969.44
2023-10-09T00:30:20.159Z,92972.00
2023-10-09T00:33:00.965Z,92973.69
2023-10-09T00:35:38.245Z,92956.69
2023-10-09T00:38:32.459Z,92967.94
2023-10-09T00:41:06.539Z,92948.69
2023-10-09T00:43:36.526Z,92957.56
2023-10-09T00:46:05.618Z,92963.88
2023-10-09T00:48:38.054Z,92959.06
2023-10-09T00:51:22.933Z,92954.63
2023-10-09T00:54:00.708Z,92967.56
2023-10-09T00:56:28.513Z,92958.69
2023-10-09T00:59:15.883Z,92959.28
2023-10-09T01:01:57.535Z,92962.59
2023-10-09T01:04:26.860Z,92959.06
2023-10-09T01:07:12.274Z,92948.34
2023-10-09T01:09:39.392Z,92961.66
2023-10-09T01:12:06.700Z,92951.31
2023-10-09T01:14:42.353Z,92947.00
2023-10-09T01:17:10.227Z,92941.66
2023-10-09T01:19:37.604Z,92938.19
2023-10-09T01:22:14.529Z,92943.16
2023-10-09T01:24:41.869Z,92949.25
2023-10-09T01:27:17.790Z,92948.69
2023-10-09T01:29:47.377Z,92945.72
2023-10-09T01:32:21.079Z,92940.94
2023-10-09T01:34:51.170Z,92922.97
2023-10-09T01:37:20.805Z,92937.22
2023-10-09T01:39:52.108Z,92930.03
2023-10-09T01:42:29.203Z,92929.13
2023-10-09T01:44:56.847Z,92920.63
2023-10-09T01:47:23.459Z,92937.22
2023-10-09T01:49:54.755Z,92927.63
2023-10-09T01:52:21.839Z,92936.31
2023-10-09T01:54:52.714Z,92921.34
2023-10-09T01:57:24.525Z,92923.56
2023-10-09T01:59:54.525Z,92926.16
2023-10-09T02:02:29.067Z,92926.53
2023-10-09T02:05:14.188Z,92923.19
2023-10-09T02:07:53.615Z,92927.63
2023-10-09T02:10:30.587Z,92922.06
2023-10-09T02:12:59.449Z,92920.22
2023-10-09T02:15:45.818Z,92926.16
2023-10-09T02:18:26.180Z,92933.16
2023-10-09T02:21:00.419Z,92917.09
2023-10-09T02:23:41.374Z,92921.72
2023-10-09T02:26:18.714Z,92913.41
2023-10-09T02:28:45.505Z,92910.25
2023-10-09T02:31:13.739Z,92909.50
2023-10-09T02:33:40.915Z,92917.25
2023-10-09T02:36:08.344Z,92926.50
2023-10-09T02:38:41.804Z,92926.47
2023-10-09T02:41:14.321Z,92921.53
2023-10-09T02:43:47.674Z,92920.56
2023-10-09T02:46:36.052Z,92917.97
2023-10-09T02:49:07.415Z,92918.16
2023-10-09T02:51:34.276Z,92930.38
2023-10-09T02:54:20.653Z,92915.78
2023-10-09T02:57:11.427Z,92902.44
2023-10-09T02:59:42.591Z,92917.44
2023-10-09T03:02:09.537Z,92909.84
2023-10-09T03:04:36.149Z,92902.44
2023-10-09T03:07:04.823Z,92913.91
2023-10-09T03:09:33.182Z,92896.50
2023-10-09T03:12:05.052Z,92912.63
2023-10-09T03:14:39.228Z,92898.72
2023-10-09T03:17:12.497Z,92912.41
2023-10-09T03:19:40.012Z,92910.56
2023-10-09T03:22:11.998Z,92902.44
2023-10-09T03:24:48.922Z,92904.13
2023-10-09T03:27:18.218Z,92910.94
2023-10-09T03:29:50.744Z,92906.34
2023-10-09T03:32:17.383Z,92907.09
2023-10-09T03:34:44.894Z,92899.69
2023-10-09T03:37:23.327Z,92893.94
2023-10-09T03:39:52.838Z,92905.59
2023-10-09T03:42:23.745Z,92900.06
2023-10-09T03:44:54.877Z,92896.91
2023-10-09T03:47:23.872Z,92888.75
2023-10-09T03:49:52.769Z,92907.97
2023-10-09T03:52:20.318Z,92902.44
2023-10-09T03:54:50.754Z,92898.41
2023-10-09T03:57:21.414Z,92894.88
2023-10-09T03:59:48.232Z,92892.66
2023-10-09T04:02:17.248Z,92884.69
2023-10-09T04:04:48.653Z,92900.22
2023-10-09T04:07:18.704Z,92896.50
2023-10-09T04:09:55.320Z,92886.94
2023-10-09T04:12:22.524Z,92890.97
2023-10-09T04:14:56.416Z,92883.22
2023-10-09T04:17:36.336Z,92894.84
2023-10-09T04:20:16.675Z,92888.22
2023-10-09T04:22:52.464Z,92889.50
2023-10-09T04:25:30.423Z,92886.00
2023-10-09T04:28:19.119Z,92881.34
2023-10-09T04:30:56.614Z,92883.56
2023-10-09T04:33:44.453Z,92885.06
2023-10-09T04:36:31.488Z,92885.06
2023-10-09T04:39:07.033Z,92889.13
2023-10-09T04:41:52.292Z,92882.09
2023-10-09T04:44:20.796Z,92880.63
2023-10-09T04:47:07.529Z,92879.16
2023-10-09T04:49:49.942Z,92873.81
2023-10-09T04:52:27.027Z,92880.81
2023-10-09T04:55:08.960Z,92875.06
2023-10-09T04:57:45.935Z,92880.63
2023-10-09T05:00:43.701Z,92875.97
2023-10-09T05:03:13.951Z,92878.75
2023-10-09T05:05:44.711Z,92879.16
2023-10-09T05:08:28.234Z,92880.63
2023-10-09T05:11:00.034Z,92869.19
2023-10-09T05:13:43.135Z,92879.16
2023-10-09T05:16:16.532Z,92885.44
2023-10-09T05:18:46.156Z,92881.91
2023-10-09T05:21:45.573Z,92874.72
2023-10-09T05:24:13.525Z,92867.28
2023-10-09T05:26:48.433Z,92876.19
2023-10-09T05:29:33.873Z,92869.19
2023-10-09T05:32:01.917Z,92876.19
2023-10-09T05:34:35.142Z,92876.19
2023-10-09T05:37:18.934Z,92885.38
2023-10-09T05:39:59.358Z,92880.03
2023-10-09T05:42:43.852Z,92884.28
2023-10-09T05:45:19.672Z,92889.81
2023-10-09T05:48:05.016Z,92892.38
2023-10-09T05:50:35.496Z,92880.75
2023-10-09T05:53:03.334Z,92898.13
2023-10-09T05:55:48.721Z,92893.88
2023-10-09T05:58:34.284Z,92882.41
2023-10-09T06:01:26.618Z,92888.16
2023-10-09T06:03:56.133Z,92887.19
2023-10-09T06:06:35.248Z,92894.75
2023-10-09T06:09:16.995Z,92885.00
2023-10-09T06:11:51.156Z,92889.06
2023-10-09T06:14:47.269Z,92889.22
2023-10-09T06:17:24.455Z,92880.25
2023-10-09T06:19:59.690Z,92898.56
2023-10-09T06:22:44.912Z,92902.03
2023-10-09T06:25:12.770Z,92897.47
2023-10-09T06:27:48.149Z,92880.44
2023-10-09T06:30:20.556Z,92894.88
2023-10-09T06:32:59.449Z,92888.41
2023-10-09T06:35:32.468Z,92882.72
2023-10-09T06:38:03.423Z,92870.88
2023-10-09T06:40:49.256Z,92881.63
2023-10-09T06:43:18.639Z,92870.19
2023-10-09T06:45:45.750Z,92875.53
2023-10-09T06:48:37.401Z,92880.91
2023-10-09T06:51:13.967Z,92889.19
2023-10-09T06:54:07.629Z,92894.19
2023-10-09T06:56:34.780Z,92883.88
2023-10-09T06:59:14.980Z,92880.69
2023-10-09T07:01:45.138Z,92894.19
2023-10-09T07:04:20.817Z,92881.63
2023-10-09T07:06:52.185Z,92894.59
2023-10-09T07:09:22.559Z,92889.06
2023-10-09T07:11:53.406Z,92890.88
2023-10-09T07:14:33.481Z,92890.53
2023-10-09T07:17:29.104Z,92880.56
2023-10-09T07:19:55.789Z,92873.53
2023-10-09T07:22:22.933Z,92876.47
2023-10-09T07:25:14.877Z,92880.91
2023-10-09T07:27:52.728Z,92883.13
2023-10-09T07:30:32.989Z,92885.00
2023-10-09T07:33:14.169Z,92865.00
2023-10-09T07:35:45.564Z,92871.31
2023-10-09T07:38:36.685Z,92869.47
2023-10-09T07:41:07.613Z,92860.22
2023-10-09T07:43:41.293Z,92870.59
2023-10-09T07:46:27.394Z,92865.81
2023-10-09T07:48:54.806Z,92854.34
2023-10-09T07:51:32.063Z,92857.31
2023-10-09T07:54:09.761Z,92860.28
2023-10-09T07:56:54.424Z,92857.72
2023-10-09T07:59:21.002Z,92848.81
2023-10-09T08:01:56.129Z,92860.47
2023-10-09T08:04:39.626Z,92838.84
2023-10-09T08:08:05.488Z,92845.13
2023-10-09T08:10:14.339Z,92852.16
2023-10-09T08:12:50.454Z,92852.56
2023-10-09T08:15:21.280Z,92845.53
2023-10-09T08:18:00.630Z,92839.09
2023-10-09T08:20:29.428Z,92844.06
2023-10-09T08:22:59.512Z,92830.78
2023-10-09T08:25:29.161Z,92823.97
2023-10-09T08:28:20.752Z,92807.16
2023-10-09T08:31:03.813Z,92823.47
2023-10-09T08:36:16.474Z,92817.56
2023-10-09T08:38:43.322Z,92813.31
2023-10-09T08:41:18.823Z,92795.06
2023-10-09T08:43:52.121Z,92803.91
2023-10-09T08:46:30.046Z,92794.69
2023-10-09T08:48:58.163Z,92786.38
2023-10-09T08:51:29.356Z,92781.03
2023-10-09T08:53:57.258Z,92788.06
2023-10-09T08:56:24.587Z,92785.28
2023-10-09T08:58:56.961Z,92777.00
2023-10-09T09:01:26.309Z,92778.09
2023-10-09T09:03:56.872Z,92773.09
2023-10-09T09:06:24.344Z,92773.50
2023-10-09T09:08:56.464Z,92770.34
2023-10-09T09:11:26.391Z,92763.13
2023-10-09T09:14:30.419Z,92759.66
2023-10-09T09:16:57.154Z,92762.78
2023-10-09T09:19:33.415Z,92762.59
2023-10-09T09:22:00.642Z,92766.28
2023-10-09T09:24:27.337Z,92762.97
2023-10-09T09:27:01.937Z,92758.72
2023-10-09T09:29:37.671Z,92757.41
2023-10-09T09:32:19.005Z,92737.69
2023-10-09T09:34:50.967Z,92746.34
2023-10-09T09:37:31.999Z,92734.91
2023-10-09T09:40:01.698Z,92734.16
2023-10-09T09:42:32.682Z,92732.69
2023-10-09T09:45:01.795Z,92721.59
2023-10-09T09:47:28.939Z,92711.63
2023-10-09T09:50:13.796Z,92720.13
2023-10-09T09:52:40.987Z,92710.16
2023-10-09T09:55:18.946Z,92717.19
2023-10-09T09:57:52.959Z,92680.97
2023-10-09T10:00:43.899Z,92697.59
2023-10-09T10:03:15.899Z,92690.78
2023-10-09T10:05:47.529Z,92702.78
2023-10-09T10:08:21.330Z,92701.69
2023-10-09T10:10:58.545Z,92697.81
2023-10-09T10:13:50.003Z,92703.53
2023-10-09T10:16:19.950Z,92705.00
2023-10-09T10:19:08.726Z,92683.97
2023-10-09T10:21:42.416Z,92687.66
2023-10-09T10:24:30.253Z,92681.34
2023-10-09T10:27:19.333Z,92678.41
2023-10-09T10:29:51.411Z,92678.41
2023-10-09T10:32:19.514Z,92666.59
2023-10-09T10:35:07.553Z,92656.59
2023-10-09T10:37:40.738Z,92670.28
2023-10-09T10:40:14.969Z,92652.38
2023-10-09T10:43:10.828Z,92658.44
2023-10-09T10:45:39.511Z,92661.22
2023-10-09T10:48:11.078Z,92650.50
2023-10-09T10:50:38.762Z,92643.31
2023-10-09T10:53:17.202Z,92633.69
2023-10-09T10:56:15.597Z,92629.28
2023-10-09T10:58:55.159Z,92637.94
2023-10-09T11:01:27.220Z,92635.91
2023-10-09T11:03:56.800Z,92622.97
2023-10-09T11:06:38.116Z,92611.53
2023-10-09T11:09:46.690Z,92611.88
2023-10-09T11:12:25.132Z,92609.31
2023-10-09T11:15:07.679Z,92631.09
2023-10-09T11:17:36.797Z,92618.19
2023-10-09T11:20:23.568Z,92606.34
2023-10-09T11:23:12.008Z,92585.31
2023-10-09T11:25:51.813Z,92583.44
2023-10-09T11:28:31.378Z,92598.03
2023-10-09T11:31:16.706Z,92599.69
2023-10-09T11:33:52.473Z,92591.22
2023-10-09T11:36:32.703Z,92580.13
2023-10-09T11:39:17.699Z,92585.31
2023-10-09T11:41:45.425Z,92579.75
2023-10-09T11:44:35.028Z,92571.97
2023-10-09T11:47:20.891Z,92557.22
2023-10-09T11:50:01.586Z,92559.41
2023-10-09T11:52:57.557Z,92559.41
2023-10-09T11:55:26.374Z,92557.38
2023-10-09T11:57:52.934Z,92546.13
2023-10-09T12:00:32.040Z,92538.91
2023-10-09T12:03:06.227Z,92551.28
2023-10-09T12:05:34.907Z,92554.41
2023-10-09T12:08:02.958Z,92540.19
2023-10-09T12:10:31.031Z,92543.47
2023-10-09T12:13:00.427Z,92528.75
2023-10-09T12:15:37.920Z,92549.03
2023-10-09T12:18:16.146Z,92534.66
2023-10-09T12:20:48.860Z,92533.53
2023-10-09T12:23:16.064Z,92538.69
2023-10-09T12:25:46.003Z,92527.97
2023-10-09T12:28:16.107Z,92522.81
2023-10-09T12:30:42.878Z,92506.94
2023-10-09T12:33:10.117Z,92511.91
2023-10-09T12:35:40.876Z,92509.13
2023-10-09T12:38:11.394Z,92520.22
2023-10-09T12:40:39.553Z,92503.44
2023-10-09T12:43:06.675Z,92506.00
2023-10-09T12:45:35.631Z,92506.16
2023-10-09T12:48:04.695Z,92500.28
2023-10-09T12:50:34.893Z,92507.81
2023-10-09T12:53:08.523Z,92499.88
2023-10-09T12:55:41.716Z,92501.38
2023-10-09T12:58:10.585Z,92493.78
2023-10-09T13:00:39.330Z,92490.44
2023-10-09T13:03:17.685Z,92487.91
2023-10-09T13:05:56.115Z,92479.59
2023-10-09T13:08:36.509Z,92481.06
2023-10-09T13:11:11.847Z,92484.00
2023-10-09T13:13:52.177Z,92478.28
2023-10-09T13:16:26.995Z,92479.91
2023-10-09T13:18:57.800Z,92485.06
2023-10-09T13:21:27.485Z,92478.06
2023-10-09T13:23:58.722Z,92469.97
2023-10-09T13:26:34.709Z,92476.94
2023-10-09T13:29:04.855Z,92481.03
2023-10-09T13:31:36.385Z,92475.09
2023-10-09T13:34:12.481Z,92471.00
2023-10-09T13:36:39.200Z,92463.63
2023-10-09T13:39:26.325Z,92466.94
2023-10-09T13:42:01.212Z,92480.97
2023-10-09T13:44:29.692Z,92475.09
2023-10-09T13:46:57.700Z,92459.91
2023-10-09T13:49:30.832Z,92452.91
2023-10-09T13:51:58.008Z,92448.09
2023-10-09T13:54:33.575Z,92448.81
2023-10-09T13:57:07.558Z,92441.66
2023-10-09T13:59:43.638Z,92444.78
2023-10-09T14:02:11.417Z,92451.94
2023-10-09T14:04:38.603Z,92450.88
2023-10-09T14:07:07.282Z,92448.47
2023-10-09T14:09:40.018Z,92453.66
2023-10-09T14:12:08.759Z,92458.06
2023-10-09T14:14:39.528Z,92455.84
2023-10-09T14:17:13.522Z,92455.84
2023-10-09T14:19:49.951Z,92461.72
2023-10-09T14:22:18.070Z,92464.50
2023-10-09T14:24:49.552Z,92432.97
2023-10-09T14:27:18.937Z,92445.88
2023-10-09T14:29:49.591Z,92446.41
2023-10-09T14:32:17.480Z,92445.09
2023-10-09T14:34:51.648Z,92440.69
2023-10-09T14:37:20.408Z,92433.69
2023-10-09T14:39:50.186Z,92437.75
2023-10-09T14:42:17.778Z,92445.28
2023-10-09T14:44:48.842Z,92447.38
2023-10-09T14:47:15.894Z,92446.59
2023-10-09T14:49:48.024Z,92453.66
2023-10-09T14:52:18.084Z,92457.31
2023-10-09T14:54:47.656Z,92457.66
2023-10-09T14:57:15.032Z,92458.25
2023-10-09T14:59:44.338Z,92474.31
2023-10-09T15:02:13.531Z,92465.63
2023-10-09T15:04:40.990Z,92457.66
2023-10-09T15:07:08.442Z,92455.78
2023-10-09T15:09:37.938Z,92469.13
2023-10-09T15:12:08.865Z,92472.03
2023-10-09T15:14:35.901Z,92470.22
2023-10-09T15:17:04.131Z,92477.75
2023-10-09T15:19:31.182Z,92473.16
2023-10-09T15:21:59.999Z,92471.31
2023-10-09T15:24:28.990Z,92479.06
2023-10-09T15:26:58.883Z,92474.97
2023-10-09T15:29:29.762Z,92477.59
2023-10-09T15:31:57.277Z,92477.59
2023-10-09T15:34:25.829Z,92473.53
2023-10-09T15:36:54.635Z,92465.41
2023-10-09T15:39:22.617Z,92474.66
2023-10-09T15:41:49.979Z,92492.41
2023-10-09T15:44:17.829Z,92489.31
2023-10-09T15:46:48.126Z,92495.00
2023-10-09T15:49:17.538Z,92497.00
2023-10-09T15:51:44.842Z,92489.06
2023-10-09T15:54:13.684Z,92483.50
2023-10-09T15:56:46.054Z,92476.91
2023-10-09T15:59:18.052Z,92484.25
2023-10-09T16:01:45.178Z,92477.25
2023-10-09T16:04:12.217Z,92476.50
2023-10-09T16:06:42.546Z,92484.25
2023-10-09T16:09:12.890Z,92480.03
2023-10-09T16:11:40.954Z,92488.66
2023-10-09T16:14:10.854Z,92488.66
2023-10-09T16:16:45.988Z,92495.72
2023-10-09T16:19:13.509Z,92498.69
2023-10-09T16:21:40.804Z,92489.84
2023-10-09T16:24:10.561Z,92501.06
2023-10-09T16:26:46.527Z,92509.41
2023-10-09T16:29:13.656Z,92511.41
2023-10-09T16:31:42.048Z,92499.44
2023-10-09T16:34:09.891Z,92483.13
2023-10-09T16:36:39.561Z,92470.56
2023-10-09T16:39:06.386Z,92470.22
2023-10-09T16:41:41.176Z,92476.13
2023-10-09T16:44:11.275Z,92467.28
2023-10-09T16:46:40.947Z,92469.13
2023-10-09T16:49:09.704Z,92468.16
2023-10-09T16:51:36.618Z,92475.72
2023-10-09T16:54:04.270Z,92480.53
2023-10-09T16:56:34.629Z,92477.59
2023-10-09T16:59:01.857Z,92479.63
2023-10-09T17:01:29.064Z,92490.34
2023-10-09T17:03:58.919Z,92485.75
2023-10-09T17:06:30.184Z,92486.47
2023-10-09T17:08:58.297Z,92488.34
2023-10-09T17:11:25.881Z,92493.88
2023-10-09T17:13:55.867Z,92499.75
2023-10-09T17:16:25.036Z,92498.50
2023-10-09T17:18:57.352Z,92492.97
2023-10-09T17:21:24.557Z,92510.16
2023-10-09T17:23:54.361Z,92511.97
2023-10-09T17:26:23.811Z,92514.59
2023-10-09T17:28:54.690Z,92510.16
2023-10-09T17:31:24.740Z,92526.41
2023-10-09T17:33:55.027Z,92522.38
2023-10-09T17:36:22.585Z,92528.66
2023-10-09T17:38:52.683Z,92540.66
2023-10-09T17:41:22.429Z,92540.13
2023-10-09T17:43:51.534Z,92536.06
2023-10-09T17:46:19.134Z,92536.06
2023-10-09T17:48:46.394Z,92546.03
2023-10-09T17:51:13.214Z,92550.09
2023-10-09T17:53:40.830Z,92533.28
2023-10-09T17:56:11.200Z,92547.16
2023-10-09T17:58:38.185Z,92551.22
2023-10-09T18:01:09.820Z,92544.22
2023-10-09T18:03:39.264Z,92549.75
2023-10-09T18:06:06.518Z,92545.66
2023-10-09T18:08:33.214Z,92548.44
2023-10-09T18:11:01.746Z,92549.75
2023-10-09T18:13:29.649Z,92544.03
2023-10-09T18:16:13.136Z,92534.25
2023-10-09T18:18:51.546Z,92547.34
2023-10-09T18:21:21.150Z,92546.03
2023-10-09T18:23:49.163Z,92547.16
2023-10-09T18:26:16.444Z,92558.06
2023-10-09T18:28:45.970Z,92556.03
2023-10-09T18:31:14.808Z,92552.69
2023-10-09T18:33:44.640Z,92561.19
2023-10-09T18:36:12.438Z,92557.13
2023-10-09T18:38:39.748Z,92556.25
2023-10-09T18:41:11.981Z,92567.66
2023-10-09T18:43:43.040Z,92575.97
2023-10-09T18:46:12.859Z,92576.38
2023-10-09T18:48:40.237Z,92568.63
2023-10-09T18:51:08.846Z,92566.41
2023-10-09T18:53:35.688Z,92571.56
2023-10-09T18:56:02.800Z,92575.09
2023-10-09T18:58:29.761Z,92574.53
2023-10-09T19:01:03.217Z,92570.09
2023-10-09T19:03:30.159Z,92573.06
2023-10-09T19:05:57.445Z,92565.66
2023-10-09T19:08:24.350Z,92554.75
2023-10-09T19:11:00.121Z,92557.53
2023-10-09T19:13:27.088Z,92558.66
2023-10-09T19:15:53.710Z,92564.56
2023-10-09T19:18:20.672Z,92563.06
2023-10-09T19:20:47.922Z,92547.56
2023-10-09T19:23:14.738Z,92550.16
2023-10-09T19:25:44.330Z,92568.09
2023-10-09T19:28:13.322Z,92580.81
2023-10-09T19:30:40.012Z,92574.53
2023-10-09T19:33:07.068Z,92585.81
2023-10-09T19:35:41.494Z,92587.84
2023-10-09T19:38:09.424Z,92587.13
2023-10-09T19:40:36.543Z,92584.91
2023-10-09T19:43:03.437Z,92583.06
2023-10-09T19:45:31.496Z,92588.56
2023-10-09T19:47:58.330Z,92577.50
2023-10-09T19:50:26.470Z,92582.84
2023-10-09T19:52:53.303Z,92572.31
2023-10-09T19:55:22.784Z,92574.53
2023-10-09T19:57:49.818Z,92585.25
2023-10-09T20:00:22.534Z,92585.81
2023-10-09T20:02:55.254Z,92593.38
2023-10-09T20:05:23.924Z,92605.94
2023-10-09T20:07:50.885Z,92603.56
2023-10-09T20:10:19.501Z,92605.94
2023-10-09T20:12:46.605Z,92608.53
2023-10-09T20:15:14.667Z,92610.75
2023-10-09T20:17:44.711Z,92612.63
2023-10-09T20:20:13.089Z,92615.03
2023-10-09T20:22:40.784Z,92597.47
2023-10-09T20:25:18.419Z,92615.78
2023-10-09T20:27:44.981Z,92610.44
2023-10-09T20:30:15.977Z,92617.78
2023-10-09T20:32:43.013Z,92612.63
2023-10-09T20:35:13.388Z,92603.75
2023-10-09T20:37:41.705Z,92607.09
2023-10-09T20:40:19.122Z,92617.97
2023-10-09T20:42:47.416Z,92605.41
2023-10-09T20:45:14.605Z,92598.41
2023-10-09T20:47:49.200Z,92596.75
2023-10-09T20:50:16.103Z,92607.84
2023-10-09T20:52:47.227Z,92609.66
2023-10-09T20:55:20.221Z,92615.78
2023-10-09T20:57:47.569Z,92606.16
2023-10-09T21:00:20.397Z,92617.78
2023-10-09T21:02:48.296Z,92609.69
2023-10-09T21:05:16.323Z,92625.19
2023-10-09T21:07:47.931Z,92628.88
2023-10-09T21:10:15.905Z,92624.09
2023-10-09T21:12:43.393Z,92624.47
2023-10-09T21:15:11.384Z,92613.38
2023-10-09T21:17:47.649Z,92632.03
2023-10-09T21:20:18.379Z,92634.06
2023-10-09T21:22:51.656Z,92642.38
2023-10-09T21:25:27.742Z,92639.59
2023-10-09T21:27:57.945Z,92641.81
2023-10-09T21:30:25.764Z,92632.94
2023-10-09T21:32:55.113Z,92641.81
2023-10-09T21:35:23.345Z,92646.25
2023-10-09T21:37:53.474Z,92652.19
2023-10-09T21:40:32.075Z,92658.25
2023-10-09T21:43:00.374Z,92662.88
2023-10-09T21:45:28.172Z,92649.22
2023-10-09T21:47:58.986Z,92660.31
2023-10-09T21:50:27.548Z,92661.03
2023-10-09T21:52:59.029Z,92653.09
2023-10-09T21:55:28.486Z,92660.69
2023-10-09T21:57:56.309Z,92661.78
2023-10-09T22:00:32.364Z,92654.41
2023-10-09T22:03:09.364Z,92657.16
2023-10-09T22:05:43.232Z,92664.34
2023-10-09T22:08:11.103Z,92665.09
2023-10-09T22:10:38.393Z,92654.41
2023-10-09T22:13:08.963Z,92658.44
2023-10-09T22:15:36.162Z,92654.41
2023-10-09T22:18:11.052Z,92667.31
2023-10-09T22:20:38.762Z,92670.66
2023-10-09T22:23:11.764Z,92665.47
2023-10-09T22:25:38.358Z,92660.31
2023-10-09T22:28:10.245Z,92658.09
2023-10-09T22:30:37.699Z,92663.97
2023-10-09T22:33:06.143Z,92658.09
2023-10-09T22:35:34.721Z,92659.94
2023-10-09T22:38:09.088Z,92648.28
2023-10-09T22:40:39.650Z,92652.00
2023-10-09T22:43:10.028Z,92651.06
2023-10-09T22:45:40.393Z,92652.56
2023-10-09T22:48:07.703Z,92657.53
2023-10-09T22:50:37.237Z,92651.44
2023-10-09T22:53:25.779Z,92648.84
2023-10-09T22:55:53.823Z,92658.44
2023-10-09T22:58:27.740Z,92656.03
2023-10-09T23:00:56.430Z,92647.94
2023-10-09T23:03:29.928Z,92656.41
2023-10-09T23:06:34.232Z,92658.09
2023-10-09T23:09:15.918Z,92655.16
2023-10-09T23:11:55.506Z,92649.59
2023-10-09T23:14:28.772Z,92660.31
2023-10-09T23:17:07.637Z,92656.22
2023-10-09T23:19:39.891Z,92653.28
2023-10-09T23:22:08.087Z,92648.66
2023-10-09T23:24:54.808Z,92660.69
2023-10-09T23:27:37.931Z,92642.22
2023-10-09T23:30:15.372Z,92659.19
2023-10-09T23:32:53.276Z,92661.78
2023-10-09T23:35:22.521Z,92660.88
2023-10-09T23:38:08.916Z,92664.53
2023-10-09T23:40:42.058Z,92659.56
2023-10-09T23:43:34.096Z,92667.88
2023-10-09T23:46:01.551Z,92660.31
2023-10-09T23:48:29.162Z,92659.38
2023-10-09T23:51:05.000Z,92653.31
2023-10-09T23:53:36.687Z,92668.44
2023-10-09T23:56:11.333Z,92669.00
2023-10-09T23:58:41.984Z,92668.44
